Time;durP1;ratioP1;P1;durP2;ratioP2;P2;SDS_P1;SDS_P2;PMS_P1;PMS_P2;Temp;Humidity;BMP_temperature;BMP_pressure;BME280_temperature;BME280_humidity;BME280_pressure;Samples;Min_cycle;Max_cycle;Signal;HPM_P1;HPM_P2
2021/08/15 00:01:33;;;;;;;0.40;0.00;;;;;;;21.55;63.88;100364.14;127000;1090;102863;-84
2021/08/15 00:04:00;;;;;;;0.40;0.00;;;;;;;21.54;63.51;100376.84;127074;1090;101729;-83
2021/08/15 00:06:27;;;;;;;0.40;0.00;;;;;;;21.63;63.39;100356.34;127029;1093;102890;-84
2021/08/15 00:08:54;;;;;;;0.40;0.00;;;;;;;21.50;63.34;100359.04;127090;1093;102988;-84
2021/08/15 00:11:20;;;;;;;0.40;0.00;;;;;;;21.57;63.42;100364.05;127053;1090;102943;-84
2021/08/15 00:13:46;;;;;;;0.40;0.00;;;;;;;21.61;63.67;100357.44;127151;1090;101716;-84
2021/08/15 00:16:13;;;;;;;0.40;0.00;;;;;;;21.48;63.61;100360.98;127064;1090;102905;-84
2021/08/15 00:18:39;;;;;;;0.40;0.00;;;;;;;21.45;63.50;100363.92;127075;1093;102943;-84
2021/08/15 00:21:06;;;;;;;0.40;0.00;;;;;;;21.54;63.56;100362.44;127019;1089;103007;-84
2021/08/15 00:23:32;;;;;;;0.40;0.00;;;;;;;21.52;63.74;100362.48;127060;1090;102871;-84
2021/08/15 00:25:59;;;;;;;0.40;0.00;;;;;;;21.49;63.56;100365.43;127041;1093;102865;-84
2021/08/15 00:28:25;;;;;;;0.40;0.00;;;;;;;21.58;62.93;100372.07;126996;1093;102887;-84
2021/08/15 00:30:52;;;;;;;0.40;0.00;;;;;;;21.60;63.14;100363.82;126991;1090;102982;-83
2021/08/15 00:33:18;;;;;;;0.40;0.00;;;;;;;21.44;63.52;100364.89;127009;1093;102933;-83
2021/08/15 00:35:44;;;;;;;0.40;0.00;;;;;;;21.50;63.54;100363.61;126755;1093;103360;-83
2021/08/15 00:38:11;;;;;;;0.40;0.00;;;;;;;21.43;63.38;100365.87;126886;1093;102990;-82
2021/08/15 00:40:37;;;;;;;0.40;0.00;;;;;;;21.41;63.56;100362.42;126833;1093;102997;-83
2021/08/15 00:43:04;;;;;;;0.40;0.00;;;;;;;21.47;63.23;100358.39;126898;1093;101771;-84
2021/08/15 00:45:30;;;;;;;0.40;0.00;;;;;;;21.51;62.33;100354.47;126795;1092;102992;-82
2021/08/15 00:47:57;;;;;;;0.40;0.00;;;;;;;21.45;62.95;100363.07;126804;1092;102974;-82
2021/08/15 00:50:23;;;;;;;0.40;0.10;;;;;;;21.43;62.53;100354.17;126862;1093;101804;-83
2021/08/15 00:52:49;;;;;;;0.40;0.00;;;;;;;21.41;63.21;100353.44;126969;1092;100403;-83
2021/08/15 00:55:16;;;;;;;0.40;0.00;;;;;;;21.37;62.86;100353.64;126957;1093;103297;-83
2021/08/15 00:57:44;;;;;;;0.40;0.00;;;;;;;21.32;62.78;100350.39;126882;1090;102927;-83
2021/08/15 01:00:12;;;;;;;0.40;0.05;;;;;;;21.25;62.88;100350.97;126900;1093;103043;-83
2021/08/15 01:02:40;;;;;;;0.40;0.00;;;;;;;21.18;63.18;100348.69;126866;1093;102885;-83
2021/08/15 01:05:08;;;;;;;0.40;0.05;;;;;;;21.09;63.74;100343.94;126903;1092;101746;-83
2021/08/15 01:07:35;;;;;;;0.40;0.00;;;;;;;21.03;63.90;100347.06;127034;1093;102888;-84
2021/08/15 01:10:01;;;;;;;0.40;0.00;;;;;;;20.95;63.88;100341.34;127065;1093;103092;-83
2021/08/15 01:12:28;;;;;;;0.40;0.00;;;;;;;20.92;64.21;100349.69;127152;1093;103126;-83
2021/08/15 01:14:57;;;;;;;0.40;0.00;;;;;;;21.07;64.15;100343.16;127116;1093;103063;-83
2021/08/15 01:17:25;;;;;;;0.40;0.00;;;;;;;21.14;63.02;100343.59;126993;1093;102855;-84
2021/08/15 01:19:55;;;;;;;0.40;0.00;;;;;;;21.11;63.19;100344.70;126985;1093;103012;-84
2021/08/15 01:22:26;;;;;;;0.40;0.00;;;;;;;21.06;63.33;100341.45;126978;1092;103095;-84
2021/08/15 01:24:53;;;;;;;0.40;0.00;;;;;;;21.05;62.89;100335.16;126965;1090;102903;-84
2021/08/15 01:27:26;;;;;;;0.40;0.00;;;;;;;21.07;63.40;100339.60;126929;1093;102874;-83
2021/08/15 01:29:52;;;;;;;0.40;0.00;;;;;;;21.04;62.94;100344.25;126980;1092;102859;-83
2021/08/15 01:32:21;;;;;;;0.40;0.00;;;;;;;21.04;63.01;100333.41;126961;1093;103103;-83
2021/08/15 01:34:47;;;;;;;0.40;0.00;;;;;;;21.04;62.79;100335.27;127032;1093;102902;-83
2021/08/15 01:37:14;;;;;;;0.40;0.00;;;;;;;21.04;62.65;100329.85;126943;1090;101706;-83
2021/08/15 01:39:41;;;;;;;0.40;0.00;;;;;;;21.09;62.63;100343.08;126904;1093;102884;-83
2021/08/15 01:42:08;;;;;;;0.40;0.00;;;;;;;21.09;62.22;100334.95;126851;1090;102986;-84
2021/08/15 01:44:35;;;;;;;0.40;0.00;;;;;;;21.03;62.11;100337.13;126866;1093;103004;-83
2021/08/15 01:47:07;;;;;;;0.40;0.00;;;;;;;21.03;62.48;100333.53;126885;1093;103367;-83
2021/08/15 01:49:33;;;;;;;0.40;0.00;;;;;;;20.97;62.87;100337.55;126846;1092;102985;-83
2021/08/15 01:51:59;;;;;;;0.40;0.00;;;;;;;20.89;62.81;100331.81;126904;1092;101724;-83
2021/08/15 01:54:26;;;;;;;0.40;0.00;;;;;;;20.78;63.27;100334.40;126953;1091;101768;-83
2021/08/15 01:56:52;;;;;;;0.40;0.00;;;;;;;20.81;62.92;100331.50;126866;1093;101606;-83
2021/08/15 01:59:19;;;;;;;0.40;0.00;;;;;;;20.78;63.13;100327.16;126893;1090;101761;-84
2021/08/15 02:01:45;;;;;;;0.40;0.00;;;;;;;20.73;62.97;100323.91;126875;1092;103138;-84
2021/08/15 02:04:13;;;;;;;0.40;0.00;;;;;;;20.66;63.20;100318.03;127046;1093;102959;-84
2021/08/15 02:06:39;;;;;;;0.40;0.00;;;;;;;20.68;63.35;100317.92;126978;1093;101554;-83
2021/08/15 02:09:06;;;;;;;0.40;0.00;;;;;;;20.65;63.44;100318.14;126968;1093;100726;-84
2021/08/15 02:11:33;;;;;;;0.40;0.00;;;;;;;20.58;63.01;100317.70;127033;1093;103070;-84
2021/08/15 02:13:59;;;;;;;0.40;0.03;;;;;;;20.46;63.67;100316.72;126847;1093;102937;-84
2021/08/15 02:16:25;;;;;;;0.40;0.10;;;;;;;20.40;63.55;100308.16;126905;1093;102202;-84
2021/08/15 02:18:52;;;;;;;0.40;0.00;;;;;;;20.37;63.76;100314.64;126959;1093;102061;-84
2021/08/15 02:21:18;;;;;;;0.40;0.00;;;;;;;20.31;63.96;100307.83;126968;1093;102862;-84
2021/08/15 02:23:45;;;;;;;0.40;0.00;;;;;;;20.29;63.71;100309.75;127085;1093;102879;-84
2021/08/15 02:26:11;;;;;;;0.40;0.00;;;;;;;20.27;63.60;100308.98;126920;1093;101446;-84
2021/08/15 02:28:38;;;;;;;0.40;0.00;;;;;;;20.26;63.44;100309.98;126976;1090;101440;-83
2021/08/15 02:31:04;;;;;;;0.40;0.00;;;;;;;20.29;63.54;100301.64;126926;1093;102884;-83
2021/08/15 02:33:31;;;;;;;0.40;0.00;;;;;;;20.27;63.66;100308.13;127031;1092;102933;-83
2021/08/15 02:35:57;;;;;;;0.40;0.00;;;;;;;20.21;63.55;100307.57;126950;1093;103502;-83
2021/08/15 02:38:24;;;;;;;0.40;0.00;;;;;;;20.14;63.68;100314.38;126785;1090;102652;-84
2021/08/15 02:40:51;;;;;;;0.40;0.00;;;;;;;20.16;63.85;100306.16;126871;1093;103316;-83
2021/08/15 02:43:19;;;;;;;0.40;0.00;;;;;;;20.16;63.54;100315.13;126826;1090;102903;-83
2021/08/15 02:45:45;;;;;;;0.40;0.00;;;;;;;20.08;63.60;100303.97;126865;1093;102999;-84
2021/08/15 02:48:12;;;;;;;0.40;0.00;;;;;;;19.93;64.23;100307.73;126969;1093;102856;-84
2021/08/15 02:50:38;;;;;;;0.40;0.00;;;;;;;19.92;64.21;100317.65;126953;1090;101950;-84
2021/08/15 02:53:05;;;;;;;0.40;0.00;;;;;;;20.02;64.19;100305.27;126885;1093;101546;-85
2021/08/15 02:55:31;;;;;;;0.40;0.07;;;;;;;20.01;64.09;100303.52;126847;1093;102881;-83
2021/08/15 02:57:57;;;;;;;0.40;0.00;;;;;;;19.98;63.98;100303.73;126942;1093;102927;-83
2021/08/15 03:00:24;;;;;;;0.40;0.10;;;;;;;19.95;63.73;100303.92;126926;1092;103131;-82
2021/08/15 03:02:50;;;;;;;0.40;0.00;;;;;;;19.96;64.29;100305.66;126777;1093;101771;-83
2021/08/15 03:05:22;;;;;;;0.40;0.00;;;;;;;19.95;63.99;100316.58;126852;1093;103310;-82
2021/08/15 03:07:48;;;;;;;0.40;0.10;;;;;;;19.87;63.85;100311.69;126795;1093;102875;-84
2021/08/15 03:10:16;;;;;;;0.40;0.00;;;;;;;19.84;64.03;100315.45;126868;1093;102988;-83
2021/08/15 03:12:42;;;;;;;0.40;0.00;;;;;;;19.72;64.06;100314.39;126837;1093;103004;-82
2021/08/15 03:15:09;;;;;;;0.40;0.00;;;;;;;19.73;64.22;100301.77;126848;1091;102883;-82
2021/08/15 03:17:36;;;;;;;0.40;0.00;;;;;;;19.82;63.88;100306.59;126865;1093;101733;-82
2021/08/15 03:20:03;;;;;;;0.40;0.03;;;;;;;19.90;64.12;100303.39;126934;1093;103118;-82
2021/08/15 03:22:29;;;;;;;0.40;0.00;;;;;;;20.00;63.69;100312.59;126862;1093;103042;-84
2021/08/15 03:24:56;;;;;;;0.40;0.10;;;;;;;20.00;63.74;100301.78;126874;1093;102863;-84
2021/08/15 03:27:22;;;;;;;0.40;0.10;;;;;;;19.98;63.69;100297.44;126927;1093;102837;-81
2021/08/15 03:29:48;;;;;;;0.40;0.10;;;;;;;19.86;63.51;100305.42;126954;1093;103130;-83
2021/08/15 03:32:15;;;;;;;0.40;0.00;;;;;;;19.86;63.82;100296.46;126872;1093;102862;-83
2021/08/15 03:34:41;;;;;;;0.40;0.10;;;;;;;19.88;64.02;100302.61;126960;1093;103374;-84
2021/08/15 03:37:08;;;;;;;0.40;0.00;;;;;;;19.91;64.15;100301.55;126863;1093;102855;-84
2021/08/15 03:39:34;;;;;;;0.40;0.00;;;;;;;19.86;64.22;100291.91;126958;1092;103035;-84
2021/08/15 03:42:01;;;;;;;0.40;0.10;;;;;;;19.84;64.05;100301.09;126877;1093;102994;-82
2021/08/15 03:44:30;;;;;;;0.40;0.00;;;;;;;19.87;64.32;100299.05;126862;1089;102866;-85
2021/08/15 03:46:57;;;;;;;0.40;0.10;;;;;;;19.91;63.95;100301.55;126926;1093;103019;-82
2021/08/15 03:49:24;;;;;;;0.40;0.00;;;;;;;19.95;63.77;100298.52;126922;1090;103124;-83
2021/08/15 03:51:51;;;;;;;0.40;0.10;;;;;;;19.96;64.14;100297.55;126758;1090;103364;-84
2021/08/15 03:54:20;;;;;;;0.40;0.00;;;;;;;19.95;64.54;100293.11;126810;1093;101532;-84
2021/08/15 03:56:48;;;;;;;0.40;0.00;;;;;;;19.98;64.57;100292.92;126847;1090;102971;-84
2021/08/15 03:59:16;;;;;;;0.40;0.10;;;;;;;20.02;64.46;100297.15;126742;1090;103111;-83
2021/08/15 04:01:43;;;;;;;0.40;0.00;;;;;;;19.91;64.77;100286.18;126963;1090;103112;-84
2021/08/15 04:04:09;;;;;;;0.40;0.10;;;;;;;19.86;64.83;100274.84;126791;1092;102986;-84
2021/08/15 04:06:36;;;;;;;0.40;0.10;;;;;;;19.88;64.60;100279.14;126851;1092;102980;-85
2021/08/15 04:09:02;;;;;;;0.40;0.00;;;;;;;19.85;64.67;100273.95;126830;1090;103124;-85
2021/08/15 04:11:29;;;;;;;0.40;0.00;;;;;;;19.87;65.02;100274.73;126935;1090;102983;-83
2021/08/15 04:13:55;;;;;;;0.40;0.00;;;;;;;19.95;64.74;100270.63;126881;1093;101669;-84
2021/08/15 04:16:22;;;;;;;0.40;0.00;;;;;;;20.07;64.66;100272.48;126832;1089;101548;-84
2021/08/15 04:18:49;;;;;;;0.40;0.00;;;;;;;20.14;64.27;100265.71;126905;1089;102986;-84
2021/08/15 04:21:15;;;;;;;0.40;0.03;;;;;;;20.23;64.52;100268.75;126886;1090;103355;-84
2021/08/15 04:23:42;;;;;;;0.40;0.00;;;;;;;20.17;63.85;100257.38;126915;1090;102997;-84
2021/08/15 04:26:08;;;;;;;0.40;0.00;;;;;;;20.15;64.26;100255.75;126826;1089;102887;-84
2021/08/15 04:28:35;;;;;;;0.40;0.00;;;;;;;20.23;63.96;100257.93;126846;1090;103004;-84
2021/08/15 04:31:01;;;;;;;0.40;0.00;;;;;;;20.30;63.61;100260.11;126845;1093;103013;-83
2021/08/15 04:33:28;;;;;;;0.40;0.10;;;;;;;20.40;63.91;100256.77;126900;1090;101768;-83
2021/08/15 04:35:54;;;;;;;0.40;0.00;;;;;;;20.40;63.65;100256.77;126857;1092;102983;-83
2021/08/15 04:38:21;;;;;;;0.40;0.00;;;;;;;20.47;63.70;100263.47;126806;1090;102863;-84
2021/08/15 04:40:50;;;;;;;0.40;0.00;;;;;;;20.50;63.41;100258.71;126920;1089;101068;-85
2021/08/15 04:43:18;;;;;;;0.40;0.00;;;;;;;20.53;63.71;100260.34;126858;1093;103715;-84
2021/08/15 04:45:46;;;;;;;0.40;0.10;;;;;;;20.52;63.66;100261.30;126912;1090;102903;-84
2021/08/15 04:48:16;;;;;;;0.40;0.10;;;;;;;20.53;63.46;100255.78;126865;1090;103087;-85
2021/08/15 04:50:43;;;;;;;0.40;0.00;;;;;;;20.57;62.97;100261.00;126825;1090;102902;-85
2021/08/15 04:53:10;;;;;;;0.40;0.00;;;;;;;20.69;63.23;100257.45;126825;1089;102978;-84
2021/08/15 04:55:37;;;;;;;0.40;0.00;;;;;;;20.82;63.09;100266.42;126780;1093;103321;-84
2021/08/15 04:58:04;;;;;;;0.40;0.10;;;;;;;20.92;62.64;100268.47;126913;1090;102831;-84
2021/08/15 05:00:30;;;;;;;0.40;0.10;;;;;;;20.98;62.68;100259.89;126840;1090;102862;-83
2021/08/15 05:02:57;;;;;;;0.40;0.00;;;;;;;21.09;63.12;100268.11;126982;1090;103001;-84
2021/08/15 05:05:24;;;;;;;0.40;0.03;;;;;;;21.18;63.12;100258.46;126907;1090;102866;-83
2021/08/15 05:07:50;;;;;;;0.40;0.00;;;;;;;21.27;63.19;100256.91;126911;1090;101920;-83
2021/08/15 05:10:18;;;;;;;0.40;0.00;;;;;;;21.36;62.84;100259.79;126846;1090;102070;-83
2021/08/15 05:12:44;;;;;;;0.40;0.00;;;;;;;21.43;62.29;100256.64;126897;1090;102844;-82
2021/08/15 05:15:11;;;;;;;0.40;0.00;;;;;;;21.45;61.92;100268.23;127015;1090;102989;-83
2021/08/15 05:17:37;;;;;;;0.40;0.00;;;;;;;21.50;61.89;100253.36;126923;1090;101567;-83
2021/08/15 05:20:04;;;;;;;0.40;0.03;;;;;;;21.60;61.50;100255.42;126919;1092;102151;-84
2021/08/15 05:22:31;;;;;;;0.40;0.00;;;;;;;21.78;62.38;100261.28;126905;1090;103319;-83
2021/08/15 05:24:57;;;;;;;0.40;0.00;;;;;;;21.83;62.55;100256.38;126942;1088;103008;-85
2021/08/15 05:27:24;;;;;;;0.40;0.00;;;;;;;21.90;61.53;100249.52;126993;1090;101867;-84
2021/08/15 05:29:50;;;;;;;0.40;0.00;;;;;;;21.98;61.17;100255.22;126882;1090;101548;-83
2021/08/15 05:32:16;;;;;;;0.40;0.00;;;;;;;22.04;61.32;100246.59;126803;1090;102862;-84
2021/08/15 05:34:43;;;;;;;0.40;0.00;;;;;;;22.03;61.06;100244.89;126848;1092;103057;-84
2021/08/15 05:37:09;;;;;;;0.40;0.00;;;;;;;22.05;61.64;100248.33;126982;1088;101900;-84
2021/08/15 05:39:36;;;;;;;0.40;0.00;;;;;;;22.14;61.22;100252.19;126864;1090;100394;-85
2021/08/15 05:42:02;;;;;;;0.40;0.00;;;;;;;22.29;61.29;100241.98;126870;1090;103592;-84
2021/08/15 05:44:29;;;;;;;0.40;0.00;;;;;;;22.49;61.15;100242.31;126973;1090;102975;-85
2021/08/15 05:47:01;;;;;;;0.40;0.00;;;;;;;22.58;61.17;100248.84;126937;1090;104053;-88
2021/08/15 05:49:27;;;;;;;0.40;0.00;;;;;;;22.66;61.25;100249.98;126925;1092;102899;-83
2021/08/15 05:51:53;;;;;;;0.40;0.00;;;;;;;22.72;61.70;100251.33;127035;1090;103106;-82
2021/08/15 05:54:20;;;;;;;0.40;0.00;;;;;;;22.85;61.68;100243.08;126965;1090;102930;-83
2021/08/15 05:56:46;;;;;;;0.40;0.00;;;;;;;22.93;61.49;100246.03;127027;1090;101817;-84
2021/08/15 05:59:13;;;;;;;0.40;0.00;;;;;;;22.96;61.77;100247.63;127120;1089;101732;-83
2021/08/15 06:01:39;;;;;;;0.40;0.00;;;;;;;23.02;61.09;100250.72;127094;1090;103074;-83
2021/08/15 06:04:06;;;;;;;0.40;0.00;;;;;;;23.10;61.19;100247.38;127041;1093;102954;-85
2021/08/15 06:06:32;;;;;;;0.40;0.00;;;;;;;23.12;61.24;100256.25;126951;1088;103440;-84
2021/08/15 06:08:59;;;;;;;0.40;0.00;;;;;;;23.25;60.71;100242.57;126884;1092;102951;-83
2021/08/15 06:11:25;;;;;;;0.40;0.00;;;;;;;23.37;60.46;100249.70;126954;1090;103457;-83
2021/08/15 06:13:52;;;;;;;0.40;0.00;;;;;;;23.48;60.85;100240.65;127080;1090;102928;-83
2021/08/15 06:16:19;;;;;;;0.40;0.00;;;;;;;23.54;61.25;100245.59;126955;1090;102917;-87
2021/08/15 06:18:45;;;;;;;0.40;0.00;;;;;;;23.60;60.48;100249.64;126929;1090;102960;-82
2021/08/15 06:21:12;;;;;;;0.40;0.00;;;;;;;23.65;60.88;100255.56;126894;1092;103058;-87
2021/08/15 06:23:38;;;;;;;0.40;0.00;;;;;;;23.77;60.97;100253.66;126939;1090;101529;-87
2021/08/15 06:26:05;;;;;;;0.40;0.00;;;;;;;23.83;60.40;100255.00;126950;1090;101618;-83
2021/08/15 06:28:32;;;;;;;0.40;0.00;;;;;;;23.91;60.98;100255.23;126900;1090;102986;-84
2021/08/15 06:31:19;;;;;;;0.40;0.00;;;;;;;24.05;60.43;100254.08;127065;1090;102888;-87
2021/08/15 06:33:45;;;;;;;0.40;0.00;;;;;;;24.11;61.05;100253.56;126941;1093;103074;-87
2021/08/15 06:36:12;;;;;;;0.40;0.00;;;;;;;24.19;61.17;100255.59;126857;1093;103017;-84
2021/08/15 06:38:38;;;;;;;0.40;0.00;;;;;;;24.27;61.24;100249.50;126955;1090;101820;-84
2021/08/15 06:41:05;;;;;;;0.40;0.00;;;;;;;24.40;60.88;100255.59;126920;1093;102833;-83
2021/08/15 06:43:31;;;;;;;0.40;0.00;;;;;;;24.51;60.40;100246.49;126893;1089;102893;-84
2021/08/15 06:45:58;;;;;;;0.40;0.00;;;;;;;24.63;60.32;100247.31;126891;1090;102936;-85
2021/08/15 06:48:25;;;;;;;0.40;0.00;;;;;;;24.71;60.38;100247.48;126922;1092;103036;-85
2021/08/15 06:50:54;;;;;;;0.40;0.00;;;;;;;24.78;59.25;100243.24;126908;1090;101909;-85
2021/08/15 06:53:23;;;;;;;0.40;0.00;;;;;;;24.87;59.81;100249.72;126968;1090;101777;-86
2021/08/15 06:55:49;;;;;;;0.40;0.00;;;;;;;25.00;59.36;100250.34;127052;1090;101007;-85
2021/08/15 06:58:17;;;;;;;0.40;0.00;;;;;;;25.05;58.43;100252.66;126983;1089;101492;-79
2021/08/15 07:00:44;;;;;;;0.40;0.00;;;;;;;25.20;58.44;100259.47;126894;1090;103030;-85
2021/08/15 07:03:12;;;;;;;0.40;0.00;;;;;;;25.27;57.46;100267.07;126997;1090;102850;-87
2021/08/15 07:05:39;;;;;;;0.40;0.00;;;;;;;25.36;57.06;100256.25;127289;1090;103032;-84
2021/08/15 07:08:06;;;;;;;0.40;0.00;;;;;;;25.46;56.86;100253.53;127499;1090;100759;-85
2021/08/15 07:10:32;;;;;;;0.40;0.00;;;;;;;25.61;55.47;100245.80;126866;1090;102862;-85
2021/08/15 07:13:01;;;;;;;0.40;0.00;;;;;;;25.73;55.37;100256.59;126960;1090;102930;-85
2021/08/15 07:15:30;;;;;;;0.40;0.00;;;;;;;25.83;54.02;100250.13;126979;1090;101908;-85
2021/08/15 07:17:57;;;;;;;0.40;0.00;;;;;;;25.93;52.56;100244.66;126880;1092;102933;-86
2021/08/15 07:20:23;;;;;;;0.40;0.00;;;;;;;26.07;54.28;100247.98;126910;1090;101685;-86
2021/08/15 07:22:50;;;;;;;0.40;0.00;;;;;;;26.22;53.20;100249.28;126878;1090;100830;-88
2021/08/15 07:25:20;;;;;;;0.40;0.00;;;;;;;26.28;51.95;100250.55;126917;1090;102878;-87
2021/08/15 07:27:47;;;;;;;0.40;0.00;;;;;;;26.34;52.63;100253.56;126928;1090;103071;-84
2021/08/15 07:30:14;;;;;;;0.40;0.00;;;;;;;26.42;51.98;100252.83;126933;1090;102998;-87
2021/08/15 07:32:54;;;;;;;0.40;0.00;;;;;;;26.50;52.64;100255.69;126910;1093;101701;-88
2021/08/15 07:35:22;;;;;;;0.40;0.00;;;;;;;26.64;51.80;100256.22;126846;1093;103032;-86
2021/08/15 07:37:49;;;;;;;0.40;0.00;;;;;;;26.69;51.76;100253.91;126916;1091;101730;-87
2021/08/15 07:40:16;;;;;;;0.40;0.00;;;;;;;26.79;52.60;100254.78;126921;1090;100784;-86
2021/08/15 07:42:43;;;;;;;0.40;0.00;;;;;;;26.91;53.36;100257.30;126953;1092;102884;-87
2021/08/15 07:45:10;;;;;;;0.40;0.00;;;;;;;26.98;53.09;100252.98;126845;1090;102983;-87
2021/08/15 07:47:37;;;;;;;0.40;0.00;;;;;;;26.99;50.53;100260.14;126916;1090;102930;-86
2021/08/15 07:50:04;;;;;;;0.40;0.00;;;;;;;26.98;49.79;100251.09;126963;1090;101781;-87
2021/08/15 07:52:31;;;;;;;0.40;0.00;;;;;;;27.03;50.80;100251.50;126882;1090;102908;-85
2021/08/15 07:54:58;;;;;;;0.40;0.00;;;;;;;27.13;50.67;100256.06;126792;1090;101717;-84
2021/08/15 07:57:27;;;;;;;0.40;0.00;;;;;;;27.21;50.48;100256.16;126847;1091;101699;-84
2021/08/15 07:59:54;;;;;;;0.40;0.00;;;;;;;27.24;48.33;100255.84;126862;1090;102961;-83
2021/08/15 08:02:21;;;;;;;0.40;0.00;;;;;;;27.30;49.25;100251.66;126906;1089;102977;-86
2021/08/15 08:04:49;;;;;;;0.40;0.00;;;;;;;27.37;48.64;100250.05;126984;1090;103023;-82
2021/08/15 08:07:21;;;;;;;0.40;0.00;;;;;;;27.43;48.08;100259.52;126918;1090;102946;-84
2021/08/15 08:09:48;;;;;;;0.40;0.00;;;;;;;27.49;48.26;100251.55;126876;1090;102935;-85
2021/08/15 08:12:16;;;;;;;0.40;0.00;;;;;;;27.64;48.02;100251.88;126891;1090;100400;-88
2021/08/15 08:14:44;;;;;;;0.40;0.00;;;;;;;27.72;45.69;100251.11;126871;1090;101712;-85
2021/08/15 08:17:13;;;;;;;0.40;0.00;;;;;;;27.75;45.58;100261.76;126974;1090;103425;-86
2021/08/15 08:19:41;;;;;;;0.40;0.00;;;;;;;27.82;46.66;100251.05;127027;1090;103004;-86
2021/08/15 08:22:08;;;;;;;0.40;0.00;;;;;;;27.91;47.68;100250.11;126831;1093;100787;-83
2021/08/15 08:24:34;;;;;;;0.40;0.00;;;;;;;27.97;46.86;100240.40;126841;1090;103366;-86
2021/08/15 08:27:01;;;;;;;0.40;0.00;;;;;;;28.02;47.52;100243.56;126916;1088;103015;-83
2021/08/15 08:29:27;;;;;;;0.40;0.00;;;;;;;28.09;47.51;100239.16;126829;1090;103026;-79
2021/08/15 08:31:54;;;;;;;0.40;0.00;;;;;;;28.14;47.16;100239.55;126865;1090;103055;-84
2021/08/15 08:34:20;;;;;;;0.40;0.00;;;;;;;28.15;47.09;100234.92;126864;1090;103595;-83
2021/08/15 08:36:47;;;;;;;0.40;0.00;;;;;;;28.18;46.94;100242.84;126811;1093;101959;-83
2021/08/15 08:39:13;;;;;;;0.40;0.00;;;;;;;28.21;46.64;100242.51;126876;1090;102833;-85
2021/08/15 08:41:40;;;;;;;0.40;0.00;;;;;;;28.34;47.32;100242.95;126922;1093;101529;-82
2021/08/15 08:44:08;;;;;;;0.40;0.00;;;;;;;28.41;45.54;100245.91;126887;1090;101839;-83
2021/08/15 08:46:34;;;;;;;0.40;0.00;;;;;;;28.47;45.50;100245.27;126917;1090;103057;-85
2021/08/15 08:49:02;;;;;;;0.40;0.00;;;;;;;28.60;44.56;100236.59;126934;1090;101906;-85
2021/08/15 08:51:29;;;;;;;0.40;0.00;;;;;;;28.67;45.54;100242.33;126970;1090;101816;-86
2021/08/15 08:54:14;;;;;;;0.40;0.00;;;;;;;28.80;44.52;100240.00;126939;1090;102856;-86
2021/08/15 08:56:40;;;;;;;0.40;0.00;;;;;;;28.91;43.87;100243.48;126858;1090;103350;-83
2021/08/15 08:59:06;;;;;;;0.40;0.00;;;;;;;29.00;43.69;100243.38;126763;1089;103004;-81
2021/08/15 09:01:33;;;;;;;0.40;0.00;;;;;;;29.06;43.23;100232.75;126857;1089;103023;-84
2021/08/15 09:03:59;;;;;;;0.40;0.00;;;;;;;29.22;42.75;100237.44;126811;1089;102714;-83
2021/08/15 09:06:28;;;;;;;0.40;0.00;;;;;;;29.31;42.85;100234.61;126832;1092;102872;-81
2021/08/15 09:08:55;;;;;;;0.40;0.00;;;;;;;29.36;42.47;100236.83;126810;1090;103528;-80
2021/08/15 09:11:26;;;;;;;0.40;0.00;;;;;;;29.42;41.51;100235.33;126849;1092;102996;-81
2021/08/15 09:14:01;;;;;;;0.40;0.00;;;;;;;30.03;40.91;100235.95;126877;1090;101753;-80
2021/08/15 09:16:51;;;;;;;0.40;0.00;;;;;;;30.84;38.79;100230.50;126882;1093;103049;-81
2021/08/15 09:19:34;;;;;;;0.40;0.00;;;;;;;31.45;37.27;100227.16;126829;1090;103039;-80
2021/08/15 09:22:19;;;;;;;0.40;0.00;;;;;;;31.35;37.91;100224.66;126885;1090;101743;-81
2021/08/15 09:24:57;;;;;;;0.40;0.00;;;;;;;31.24;38.23;100228.64;126865;1092;101698;-80
2021/08/15 09:27:34;;;;;;;0.40;0.00;;;;;;;31.41;37.62;100223.91;126938;1090;102677;-83
2021/08/15 09:30:04;;;;;;;0.40;0.00;;;;;;;32.24;37.37;100223.34;126960;1089;103552;-80
2021/08/15 09:32:31;;;;;;;0.40;0.00;;;;;;;33.43;33.05;100217.84;126892;1089;101859;-81
2021/08/15 09:34:59;;;;;;;0.40;0.00;;;;;;;34.27;30.83;100219.09;126893;1090;102959;-81
2021/08/15 09:37:33;;;;;;;0.40;0.00;;;;;;;35.22;31.01;100226.94;126929;1092;102921;-82
2021/08/15 09:40:00;;;;;;;0.40;0.00;;;;;;;36.08;27.81;100222.72;126833;1090;101716;-82
2021/08/15 09:42:40;;;;;;;0.40;0.00;;;;;;;36.93;27.16;100213.64;126781;1090;102980;-80
2021/08/15 09:45:12;;;;;;;0.40;0.00;;;;;;;37.35;25.89;100221.63;126865;1090;102901;-81
2021/08/15 09:47:38;;;;;;;0.40;0.00;;;;;;;36.74;26.63;100212.61;126888;1090;102879;-79
2021/08/15 09:50:20;;;;;;;0.40;0.00;;;;;;;36.20;28.38;100211.80;126916;1090;101779;-80
2021/08/15 09:52:47;;;;;;;0.40;0.00;;;;;;;37.07;26.74;100210.81;126910;1090;102890;-79
2021/08/15 09:55:14;;;;;;;0.40;0.00;;;;;;;37.78;25.65;100209.84;126904;1090;103035;-82
2021/08/15 09:57:42;;;;;;;0.40;0.00;;;;;;;38.63;25.09;100207.63;126970;1093;101823;-80
2021/08/15 10:00:20;;;;;;;0.40;0.00;;;;;;;38.67;25.26;100203.29;126876;1093;101545;-81
2021/08/15 10:02:47;;;;;;;0.40;0.00;;;;;;;38.85;24.54;100208.02;126840;1090;102846;-83
2021/08/15 10:05:15;;;;;;;0.40;0.00;;;;;;;38.15;24.92;100206.35;126914;1093;102934;-85
2021/08/15 10:07:43;;;;;;;0.40;0.00;;;;;;;38.19;24.99;100204.81;126902;1093;101021;-80
2021/08/15 10:10:14;;;;;;;0.40;0.00;;;;;;;38.98;24.11;100204.23;126910;1090;102949;-81
2021/08/15 10:12:41;;;;;;;0.40;0.00;;;;;;;38.55;24.97;100202.33;126881;1089;102890;-81
2021/08/15 10:15:11;;;;;;;0.40;0.00;;;;;;;38.71;24.09;100204.56;126919;1090;103013;-79
2021/08/15 10:17:39;;;;;;;0.40;0.00;;;;;;;39.02;23.01;100193.49;127007;1089;103012;-79
2021/08/15 10:20:09;;;;;;;0.40;0.00;;;;;;;38.83;23.69;100200.98;126920;1089;102949;-80
2021/08/15 10:22:39;;;;;;;0.40;0.00;;;;;;;39.45;22.86;100198.90;126884;1090;103039;-80
2021/08/15 10:25:08;;;;;;;0.40;0.00;;;;;;;39.84;21.57;100195.77;126896;1090;102353;-81
2021/08/15 10:27:40;;;;;;;0.40;0.00;;;;;;;39.75;22.21;100188.83;126906;1093;103018;-80
2021/08/15 10:30:13;;;;;;;0.40;0.00;;;;;;;39.51;21.47;100185.11;126798;1089;101631;-82
2021/08/15 10:32:54;;;;;;;0.40;0.00;;;;;;;39.91;22.33;100179.79;126880;1090;102889;-81
2021/08/15 10:35:32;;;;;;;0.40;0.00;;;;;;;40.49;21.33;100176.44;126979;1090;102993;-81
2021/08/15 10:38:00;;;;;;;0.40;0.00;;;;;;;40.71;20.17;100177.52;126882;1090;102993;-85
2021/08/15 10:40:42;;;;;;;0.40;0.00;;;;;;;40.99;20.49;100164.73;126858;1090;102862;-82
2021/08/15 10:43:12;;;;;;;0.40;0.00;;;;;;;41.64;19.68;100168.19;126892;1090;102857;-83
2021/08/15 10:45:40;;;;;;;0.40;0.00;;;;;;;40.94;20.76;100159.00;126775;1093;100323;-82
2021/08/15 10:48:12;;;;;;;0.40;0.00;;;;;;;41.18;20.27;100159.78;126971;1090;103395;-80
2021/08/15 10:50:56;;;;;;;0.40;0.00;;;;;;;41.85;20.12;100151.80;126917;1090;102927;-80
2021/08/15 10:53:29;;;;;;;0.40;0.00;;;;;;;41.92;19.83;100158.06;126811;1091;102981;-81
2021/08/15 10:55:59;;;;;;;0.40;0.00;;;;;;;41.88;19.88;100154.95;126814;1090;101650;-80
2021/08/15 10:58:47;;;;;;;0.40;0.00;;;;;;;41.35;20.37;100151.45;126838;1090;103010;-80
2021/08/15 11:01:19;;;;;;;0.40;0.00;;;;;;;39.98;21.92;100162.94;126817;1091;103444;-80
2021/08/15 11:03:48;;;;;;;0.40;0.00;;;;;;;39.09;22.79;100156.09;126811;1090;103379;-78
2021/08/15 11:06:30;;;;;;;0.40;0.00;;;;;;;38.42;23.16;100145.75;126868;1092;102975;-81
2021/08/15 11:08:58;;;;;;;0.40;0.00;;;;;;;37.54;23.68;100144.78;126878;1089;101772;-80
2021/08/15 11:11:27;;;;;;;0.40;0.00;;;;;;;36.74;24.55;100140.46;126833;1090;102851;-81
2021/08/15 11:14:18;;;;;;;0.40;0.00;;;;;;;36.08;25.12;100142.32;126797;1093;103075;-82